Time;durP1;ratioP1;P1;durP2;ratioP2;P2;SDS_P1;SDS_P2;PMS_P1;PMS_P2;Temp;Humidity;BMP_temperature;BMP_pressure;BME280_temperature;BME280_humidity;BME280_pressure;Samples;Min_cycle;Max_cycle;Signal;HPM_P1;HPM_P2
2021/12/29 00:01:00;;;;;;;0.30;0.30;;;7.80;99.90;;;;;;5075625;28;20414;-68
2021/12/29 00:03:26;;;;;;;0.30;0.30;;;7.60;99.90;;;;;;5075553;28;20201;-67
2021/12/29 00:05:51;;;;;;;0.30;0.30;;;7.30;99.90;;;;;;5075521;28;20407;-68
2021/12/29 00:08:17;;;;;;;0.30;0.30;;;7.30;99.90;;;;;;5075381;28;20181;-68
2021/12/29 00:10:43;;;;;;;0.30;0.30;;;7.10;99.90;;;;;;5075484;28;20208;-67
2021/12/29 00:13:08;;;;;;;0.40;0.40;;;7.00;99.90;;;;;;5075263;28;20183;-67
2021/12/29 00:15:36;;;;;;;0.30;0.30;;;7.10;99.90;;;;;;5075361;28;20176;-67
2021/12/29 00:18:02;;;;;;;0.30;0.30;;;7.10;99.90;;;;;;5074891;28;20176;-68
2021/12/29 00:20:30;;;;;;;0.30;0.30;;;6.80;99.90;;;;;;5075264;28;20177;-68
2021/12/29 00:23:01;;;;;;;0.30;0.30;;;6.50;99.90;;;;;;5075749;28;20170;-67
2021/12/29 00:25:27;;;;;;;0.30;0.30;;;6.60;99.90;;;;;;5075007;28;20253;-68
2021/12/29 00:27:55;;;;;;;0.30;0.30;;;6.90;99.90;;;;;;5075181;28;20165;-67
2021/12/29 00:30:22;;;;;;;0.30;0.30;;;7.20;99.90;;;;;;5074977;28;21023;-68
2021/12/29 00:32:48;;;;;;;0.30;0.30;;;7.20;99.90;;;;;;5075125;28;20208;-68
2021/12/29 00:35:15;;;;;;;0.30;0.30;;;6.90;99.90;;;;;;5074964;28;20524;-68
2021/12/29 00:37:41;;;;;;;0.30;0.30;;;6.90;99.90;;;;;;5074778;28;20392;-67
2021/12/29 00:40:09;;;;;;;0.30;0.30;;;7.10;99.90;;;;;;5074614;28;20245;-68
2021/12/29 00:42:35;;;;;;;0.30;0.30;;;7.10;99.90;;;;;;5074894;28;20169;-68
2021/12/29 00:45:00;;;;;;;0.30;0.30;;;7.20;99.90;;;;;;5074590;28;20259;-68
2021/12/29 00:47:30;;;;;;;0.30;0.30;;;7.20;99.90;;;;;;5074743;28;20176;-68
2021/12/29 00:49:56;;;;;;;0.30;0.30;;;7.30;99.90;;;;;;5074266;28;20227;-67
2021/12/29 00:52:22;;;;;;;0.30;0.30;;;7.10;99.90;;;;;;5074711;28;20197;-68
2021/12/29 00:54:47;;;;;;;0.30;0.30;;;7.20;99.90;;;;;;5074361;28;20701;-68
2021/12/29 00:57:13;;;;;;;0.30;0.30;;;7.20;99.90;;;;;;5074621;28;20167;-67
2021/12/29 00:59:39;;;;;;;0.30;0.30;;;7.20;99.90;;;;;;5074075;28;20270;-68
2021/12/29 01:02:05;;;;;;;0.30;0.30;;;7.20;99.90;;;;;;5074518;28;20514;-67
2021/12/29 01:04:31;;;;;;;0.30;0.30;;;7.10;99.90;;;;;;5074395;28;20290;-68
2021/12/29 01:06:57;;;;;;;0.30;0.30;;;7.30;99.90;;;;;;5074251;28;20249;-68
2021/12/29 01:09:22;;;;;;;0.30;0.30;;;7.10;99.90;;;;;;5074172;28;20661;-68
2021/12/29 01:11:48;;;;;;;0.40;0.40;;;7.20;99.90;;;;;;5074161;28;20690;-67
2021/12/29 01:14:21;;;;;;;0.30;0.30;;;7.40;99.90;;;;;;5074111;28;20185;-67
2021/12/29 01:16:47;;;;;;;0.30;0.30;;;7.50;99.90;;;;;;5074057;28;20392;-68
2021/12/29 01:19:20;;;;;;;0.30;0.30;;;7.40;99.90;;;;;;5073982;28;20646;-68
2021/12/29 01:21:49;;;;;;;0.30;0.30;;;7.30;99.90;;;;;;5074216;28;20176;-68
2021/12/29 01:24:15;;;;;;;0.30;0.30;;;7.40;99.90;;;;;;5073708;28;20202;-68
2021/12/29 01:26:43;;;;;;;0.30;0.30;;;7.40;99.90;;;;;;5073867;28;20266;-68
2021/12/29 01:29:12;;;;;;;0.30;0.30;;;7.50;99.90;;;;;;5073087;28;20175;-67
2021/12/29 01:31:38;;;;;;;0.30;0.30;;;7.40;99.90;;;;;;5074142;28;20193;-67
2021/12/29 01:34:05;;;;;;;0.30;0.30;;;7.40;99.90;;;;;;5074122;28;20202;-67
2021/12/29 01:36:36;;;;;;;0.30;0.30;;;7.40;99.90;;;;;;5073947;28;20168;-68
2021/12/29 01:39:05;;;;;;;0.30;0.30;;;7.40;99.90;;;;;;5073484;28;20262;-68
2021/12/29 01:41:31;;;;;;;0.30;0.30;;;7.50;99.90;;;;;;5073829;28;20171;-67
2021/12/29 01:43:56;;;;;;;0.30;0.30;;;7.60;99.90;;;;;;5073538;28;20225;-68
2021/12/29 01:46:22;;;;;;;0.30;0.30;;;7.70;99.90;;;;;;5073829;28;20461;-68
2021/12/29 01:48:48;;;;;;;0.30;0.30;;;7.80;99.90;;;;;;5073477;28;20171;-67
2021/12/29 01:51:17;;;;;;;0.30;0.30;;;7.90;99.90;;;;;;5073694;28;20199;-68
2021/12/29 01:53:48;;;;;;;0.30;0.30;;;7.90;99.90;;;;;;5073602;28;20433;-68
2021/12/29 01:56:15;;;;;;;0.30;0.30;;;7.70;99.90;;;;;;5073519;28;20166;-68
2021/12/29 01:58:41;;;;;;;0.30;0.30;;;7.80;99.90;;;;;;5073288;28;20630;-68
2021/12/29 02:01:07;;;;;;;0.30;0.30;;;7.90;99.90;;;;;;5073713;28;20182;-67
2021/12/29 02:03:33;;;;;;;0.30;0.30;;;7.90;99.90;;;;;;5073422;28;20267;-68
2021/12/29 02:05:59;;;;;;;0.30;0.30;;;7.70;99.90;;;;;;5073423;28;20295;-68
2021/12/29 02:08:24;;;;;;;0.30;0.30;;;7.50;99.90;;;;;;5073373;28;20669;-68
2021/12/29 02:10:52;;;;;;;0.30;0.30;;;7.50;99.90;;;;;;5073507;28;20253;-67
2021/12/29 02:13:19;;;;;;;0.30;0.30;;;7.60;99.90;;;;;;5073639;28;20413;-68
2021/12/29 02:15:45;;;;;;;0.45;0.45;;;7.50;99.90;;;;;;5073320;28;20543;-67
2021/12/29 02:18:16;;;;;;;0.30;0.30;;;7.60;99.90;;;;;;5073135;28;20188;-68
2021/12/29 02:20:53;;;;;;;0.30;0.30;;;7.70;99.90;;;;;;5073623;28;20536;-67
2021/12/29 02:23:26;;;;;;;0.30;0.30;;;7.80;99.90;;;;;;5073432;28;20238;-68
2021/12/29 02:25:54;;;;;;;0.30;0.30;;;7.90;99.90;;;;;;5073187;28;20163;-68
2021/12/29 02:28:32;;;;;;;0.30;0.30;;;7.80;99.90;;;;;;5073235;28;20174;-68
2021/12/29 02:30:59;;;;;;;0.30;0.30;;;7.70;99.90;;;;;;5073322;28;20210;-68
2021/12/29 02:33:27;;;;;;;0.30;0.30;;;7.60;99.90;;;;;;5073212;28;20167;-67
2021/12/29 02:35:53;;;;;;;0.30;0.30;;;7.70;99.90;;;;;;5073108;28;20168;-68
2021/12/29 02:38:28;;;;;;;0.30;0.30;;;7.70;99.90;;;;;;5071766;28;20654;-67
2021/12/29 02:40:57;;;;;;;0.40;0.40;;;7.60;99.90;;;;;;5076494;28;20183;-68
2021/12/29 02:43:24;;;;;;;0.30;0.30;;;7.60;99.90;;;;;;5076996;28;20185;-68
2021/12/29 02:45:58;;;;;;;0.30;0.30;;;7.60;99.90;;;;;;5076929;28;20646;-67
2021/12/29 02:48:25;;;;;;;0.30;0.30;;;7.60;99.90;;;;;;5076824;28;20203;-68
2021/12/29 02:50:55;;;;;;;0.30;0.30;;;7.60;99.90;;;;;;5077200;28;20196;-68
2021/12/29 02:53:21;;;;;;;0.35;0.35;;;7.70;99.90;;;;;;5076936;28;20168;-68
2021/12/29 02:55:47;;;;;;;0.30;0.30;;;7.70;99.90;;;;;;5077042;28;20219;-68
2021/12/29 02:58:12;;;;;;;0.30;0.30;;;7.80;99.90;;;;;;5076736;28;20542;-68
2021/12/29 03:00:38;;;;;;;0.30;0.30;;;7.70;99.90;;;;;;5076523;28;20655;-68
2021/12/29 03:03:14;;;;;;;0.30;0.30;;;7.60;99.90;;;;;;5076719;28;20273;-68
2021/12/29 03:05:40;;;;;;;0.30;0.30;;;7.60;99.90;;;;;;5077068;28;20247;-68
2021/12/29 03:08:06;;;;;;;0.30;0.30;;;7.40;99.90;;;;;;5076752;28;20673;-67
2021/12/29 03:10:31;;;;;;;0.30;0.30;;;7.50;99.90;;;;;;5076494;28;20208;-68
2021/12/29 03:12:57;;;;;;;0.30;0.30;;;7.50;99.90;;;;;;5076568;28;20175;-68
2021/12/29 03:15:23;;;;;;;0.30;0.30;;;7.60;99.90;;;;;;5076297;28;20274;-68
2021/12/29 03:17:48;;;;;;;0.33;0.33;;;7.60;99.90;;;;;;5077001;28;20167;-68
2021/12/29 03:20:14;;;;;;;0.30;0.30;;;7.60;99.90;;;;;;5076137;28;20171;-67
2021/12/29 03:22:40;;;;;;;0.30;0.30;;;7.50;99.90;;;;;;5076328;28;20260;-68
2021/12/29 03:25:06;;;;;;;0.30;0.30;;;7.60;99.90;;;;;;5076166;28;20687;-68
2021/12/29 03:27:32;;;;;;;0.30;0.30;;;7.60;99.90;;;;;;5076502;28;20175;-68
2021/12/29 03:29:58;;;;;;;0.30;0.30;;;7.70;99.90;;;;;;5076132;28;20625;-68
2021/12/29 03:32:37;;;;;;;0.30;0.30;;;7.70;99.90;;;;;;5076240;28;20191;-68
2021/12/29 03:35:04;;;;;;;0.30;0.30;;;7.80;99.90;;;;;;5076013;28;20192;-68
2021/12/29 03:37:29;;;;;;;0.30;0.30;;;7.90;99.90;;;;;;5076096;28;20179;-68
2021/12/29 03:39:55;;;;;;;0.40;0.40;;;8.00;99.90;;;;;;5074634;28;20178;-68
2021/12/29 03:42:20;;;;;;;0.30;0.30;;;7.70;99.90;;;;;;5076087;28;20179;-68
2021/12/29 03:44:46;;;;;;;0.30;0.30;;;7.70;99.90;;;;;;5075986;28;20597;-67
2021/12/29 03:47:12;;;;;;;0.30;0.30;;;7.60;99.90;;;;;;5076078;28;20167;-68
2021/12/29 03:49:37;;;;;;;0.30;0.30;;;7.60;99.90;;;;;;5075691;28;20171;-68
2021/12/29 03:52:05;;;;;;;0.30;0.30;;;7.60;99.90;;;;;;5075219;28;20245;-67
2021/12/29 03:54:31;;;;;;;0.30;0.30;;;7.70;99.90;;;;;;5075533;28;20203;-67
2021/12/29 03:57:00;;;;;;;0.30;0.30;;;7.80;99.90;;;;;;5075628;28;20280;-67
2021/12/29 03:59:27;;;;;;;0.30;0.30;;;7.80;99.90;;;;;;5075267;28;20524;-68
2021/12/29 04:01:53;;;;;;;0.30;0.30;;;7.80;99.90;;;;;;5075748;28;20183;-68
2021/12/29 04:04:20;;;;;;;0.30;0.30;;;7.80;99.90;;;;;;5075409;28;20246;-68
2021/12/29 04:06:46;;;;;;;0.40;0.40;;;7.60;99.90;;;;;;5075556;28;20659;-67
2021/12/29 04:09:12;;;;;;;0.30;0.30;;;7.70;99.90;;;;;;5075304;28;20177;-67
2021/12/29 04:11:37;;;;;;;0.30;0.30;;;7.80;99.90;;;;;;5075479;28;20292;-68
2021/12/29 04:14:03;;;;;;;0.30;0.30;;;7.90;99.90;;;;;;5075433;28;20181;-68
2021/12/29 04:16:29;;;;;;;0.30;0.30;;;7.70;99.90;;;;;;5075504;28;20259;-68
2021/12/29 04:19:14;;;;;;;0.30;0.30;;;7.70;99.90;;;;;;5075409;28;20168;-68
2021/12/29 04:21:40;;;;;;;0.30;0.30;;;7.80;99.90;;;;;;5075433;28;20169;-68
2021/12/29 04:24:07;;;;;;;0.30;0.30;;;7.80;99.90;;;;;;5075078;28;20200;-68
2021/12/29 04:26:36;;;;;;;0.30;0.30;;;7.80;99.90;;;;;;5075767;28;20173;-68
2021/12/29 04:29:02;;;;;;;0.30;0.30;;;7.80;99.90;;;;;;5075150;28;20257;-68
2021/12/29 04:31:28;;;;;;;0.30;0.30;;;7.70;99.90;;;;;;5075081;28;20238;-67
2021/12/29 04:33:54;;;;;;;0.30;0.30;;;7.70;99.90;;;;;;5074863;28;20226;-67
2021/12/29 04:36:24;;;;;;;0.30;0.30;;;7.80;99.90;;;;;;5074979;28;20163;-68
2021/12/29 04:38:50;;;;;;;0.30;0.30;;;7.80;99.90;;;;;;5074670;28;20193;-68
2021/12/29 04:41:16;;;;;;;0.38;0.38;;;7.60;99.90;;;;;;5075014;28;20167;-68
2021/12/29 04:43:42;;;;;;;0.30;0.30;;;7.60;99.90;;;;;;5074615;28;20195;-67
2021/12/29 04:46:09;;;;;;;0.30;0.30;;;7.40;99.90;;;;;;5074799;28;20423;-68
2021/12/29 04:48:38;;;;;;;0.30;0.30;;;7.40;99.90;;;;;;5074508;28;20656;-68
2021/12/29 04:51:12;;;;;;;0.30;0.30;;;7.50;99.90;;;;;;5074682;28;20212;-68
2021/12/29 04:53:38;;;;;;;0.30;0.30;;;7.40;99.90;;;;;;5074633;28;20209;-68
2021/12/29 04:56:04;;;;;;;0.30;0.30;;;7.50;99.90;;;;;;5074495;28;20174;-68
2021/12/29 04:58:30;;;;;;;0.30;0.30;;;7.60;99.90;;;;;;5074111;28;20751;-68
2021/12/29 05:00:55;;;;;;;0.30;0.30;;;7.70;99.90;;;;;;5074761;28;20182;-68
2021/12/29 05:03:21;;;;;;;0.40;0.40;;;7.40;99.90;;;;;;5073442;28;20542;-68
2021/12/29 05:08:25;;;;;;;0.30;0.30;;;7.50;99.90;;;;;;5074591;28;20254;-68
2021/12/29 05:10:56;;;;;;;0.30;0.30;;;7.50;99.90;;;;;;5074356;28;20562;-68
2021/12/29 05:13:22;;;;;;;0.30;0.30;;;7.50;99.90;;;;;;5074330;28;20240;-68
2021/12/29 05:15:48;;;;;;;0.30;0.30;;;7.40;99.90;;;;;;5074085;28;20172;-68
2021/12/29 05:18:14;;;;;;;0.30;0.30;;;7.50;99.90;;;;;;5074052;28;20249;-67
2021/12/29 05:20:40;;;;;;;0.40;0.40;;;7.60;99.90;;;;;;5074171;28;20811;-68
2021/12/29 05:23:05;;;;;;;0.30;0.30;;;7.60;99.90;;;;;;5074199;28;20172;-68
2021/12/29 05:25:31;;;;;;;0.30;0.30;;;7.60;99.90;;;;;;5073831;28;20188;-68
2021/12/29 05:27:57;;;;;;;0.30;0.30;;;7.60;99.90;;;;;;5073798;28;20178;-67
2021/12/29 05:30:23;;;;;;;0.30;0.30;;;7.80;99.90;;;;;;5074100;28;20451;-67
2021/12/29 05:32:49;;;;;;;0.30;0.30;;;7.80;99.90;;;;;;5073963;28;20229;-67
2021/12/29 05:35:15;;;;;;;0.40;0.40;;;7.80;99.90;;;;;;5073889;28;20195;-68
2021/12/29 05:37:41;;;;;;;0.30;0.30;;;7.80;99.90;;;;;;5073720;28;20955;-68
2021/12/29 05:40:09;;;;;;;0.30;0.30;;;7.70;99.90;;;;;;5073616;28;20170;-68
2021/12/29 05:42:35;;;;;;;0.30;0.30;;;7.60;99.90;;;;;;5073683;28;20175;-67
2021/12/29 05:45:06;;;;;;;0.30;0.30;;;7.60;99.90;;;;;;5073588;28;20280;-68
2021/12/29 05:47:32;;;;;;;0.30;0.30;;;7.40;99.90;;;;;;5073858;28;20175;-68
2021/12/29 05:49:58;;;;;;;0.30;0.30;;;7.50;99.90;;;;;;5072054;28;20271;-67
2021/12/29 05:52:24;;;;;;;0.30;0.30;;;7.60;99.90;;;;;;5073547;28;20409;-68
2021/12/29 05:54:49;;;;;;;0.30;0.30;;;7.60;99.90;;;;;;5073465;28;20423;-68
2021/12/29 05:57:15;;;;;;;0.30;0.30;;;7.70;99.90;;;;;;5073570;28;20241;-67
2021/12/29 05:59:41;;;;;;;0.30;0.30;;;7.80;99.90;;;;;;5073242;28;20208;-68
2021/12/29 06:02:07;;;;;;;0.30;0.30;;;7.70;99.90;;;;;;5073682;28;20197;-68
2021/12/29 06:04:33;;;;;;;0.50;0.50;;;7.60;99.90;;;;;;5074071;28;20724;-68
2021/12/29 06:06:58;;;;;;;0.30;0.30;;;7.60;99.90;;;;;;5073441;28;20176;-68
2021/12/29 06:09:24;;;;;;;0.90;0.90;;;7.60;99.90;;;;;;5073296;28;20207;-67
2021/12/29 06:11:49;;;;;;;0.30;0.30;;;7.50;99.90;;;;;;5073407;28;20793;-68
2021/12/29 06:14:15;;;;;;;0.30;0.30;;;7.60;99.90;;;;;;5074329;28;20191;-68
2021/12/29 06:16:41;;;;;;;0.30;0.30;;;7.60;99.90;;;;;;5079976;28;20195;-68
2021/12/29 06:19:06;;;;;;;0.30;0.30;;;7.80;99.90;;;;;;5079714;28;20176;-68
2021/12/29 06:21:32;;;;;;;0.30;0.30;;;7.90;99.90;;;;;;5079917;28;20645;-68
2021/12/29 06:23:58;;;;;;;0.30;0.30;;;7.90;99.90;;;;;;5079932;28;20292;-68
2021/12/29 06:26:23;;;;;;;0.30;0.30;;;7.80;99.90;;;;;;5079920;28;20542;-67
2021/12/29 06:28:49;;;;;;;0.30;0.30;;;7.80;99.90;;;;;;5079828;28;20662;-68
2021/12/29 06:31:15;;;;;;;0.30;0.30;;;7.90;99.90;;;;;;5079956;28;20195;-68
2021/12/29 06:33:41;;;;;;;0.30;0.30;;;7.90;99.90;;;;;;5079985;28;20191;-68
2021/12/29 06:36:06;;;;;;;0.30;0.30;;;7.80;99.90;;;;;;5079857;28;20917;-68
2021/12/29 06:38:34;;;;;;;0.30;0.30;;;7.90;99.90;;;;;;5079577;28;20468;-68
2021/12/29 06:41:00;;;;;;;0.30;0.30;;;7.90;99.90;;;;;;5080017;28;20174;-68
2021/12/29 06:43:26;;;;;;;0.40;0.40;;;7.70;99.90;;;;;;5079821;28;20179;-68
2021/12/29 06:45:52;;;;;;;0.30;0.30;;;8.00;99.90;;;;;;5079732;28;20224;-68
2021/12/29 06:48:18;;;;;;;0.30;0.30;;;8.00;99.90;;;;;;5079859;28;20496;-68
2021/12/29 06:50:44;;;;;;;0.30;0.30;;;7.90;99.90;;;;;;5079590;28;20532;-67
2021/12/29 06:53:10;;;;;;;0.30;0.30;;;7.90;99.90;;;;;;5079662;28;20173;-68
2021/12/29 06:55:36;;;;;;;0.30;0.30;;;8.00;99.90;;;;;;5079774;28;20632;-67
2021/12/29 06:58:02;;;;;;;0.33;0.33;;;8.10;99.90;;;;;;5079569;28;20487;-68
2021/12/29 07:00:27;;;;;;;0.40;0.40;;;8.20;99.90;;;;;;5079690;28;20215;-68
2021/12/29 07:02:53;;;;;;;0.30;0.30;;;8.10;99.90;;;;;;5079757;28;20211;-68
2021/12/29 07:05:19;;;;;;;0.30;0.30;;;8.10;99.90;;;;;;5079506;28;20231;-68
2021/12/29 07:07:49;;;;;;;0.30;0.30;;;8.20;99.90;;;;;;5079615;28;20407;-68
2021/12/29 07:10:15;;;;;;;0.30;0.30;;;8.20;99.90;;;;;;5079237;28;20188;-68
2021/12/29 07:12:41;;;;;;;0.30;0.30;;;8.20;99.90;;;;;;5079491;28;20235;-67
2021/12/29 07:15:08;;;;;;;0.30;0.30;;;8.00;99.90;;;;;;5079644;28;20429;-68
2021/12/29 07:17:33;;;;;;;0.30;0.30;;;8.10;99.90;;;;;;5079417;28;20202;-68
2021/12/29 07:19:59;;;;;;;0.40;0.40;;;8.10;99.90;;;;;;5079304;28;20238;-67
2021/12/29 07:22:25;;;;;;;0.30;0.30;;;8.20;99.90;;;;;;5079471;28;20398;-68
2021/12/29 07:24:50;;;;;;;0.30;0.30;;;8.00;99.90;;;;;;5079343;28;20191;-68
2021/12/29 07:27:16;;;;;;;0.30;0.30;;;8.20;99.90;;;;;;5076071;28;20658;-67
2021/12/29 07:29:42;;;;;;;0.30;0.30;;;8.20;99.90;;;;;;5076012;28;20660;-68
2021/12/29 07:32:08;;;;;;;0.30;0.30;;;7.90;99.90;;;;;;5076501;28;20202;-67
2021/12/29 07:34:34;;;;;;;0.30;0.30;;;7.60;99.90;;;;;;5076215;28;20274;-68
2021/12/29 07:37:00;;;;;;;0.30;0.30;;;7.60;99.90;;;;;;5076126;28;20190;-68
2021/12/29 07:39:26;;;;;;;0.30;0.30;;;7.70;99.90;;;;;;5075958;28;20397;-67
2021/12/29 07:41:51;;;;;;;0.30;0.30;;;7.90;99.90;;;;;;5076084;28;20407;-68
2021/12/29 07:44:18;;;;;;;0.30;0.30;;;8.00;99.90;;;;;;5076023;28;20196;-68
2021/12/29 07:46:48;;;;;;;0.30;0.30;;;8.10;99.90;;;;;;5076076;28;20176;-68
2021/12/29 07:49:13;;;;;;;0.30;0.30;;;8.20;99.90;;;;;;5075660;28;20665;-68
2021/12/29 07:51:42;;;;;;;0.30;0.30;;;8.30;99.90;;;;;;5075752;28;20196;-67
2021/12/29 07:54:08;;;;;;;0.35;0.35;;;8.20;99.90;;;;;;5075693;28;20516;-68
2021/12/29 07:56:34;;;;;;;0.30;0.30;;;8.20;99.90;;;;;;5075650;28;20173;-68
2021/12/29 07:59:00;;;;;;;0.30;0.30;;;8.20;99.90;;;;;;5075379;28;20187;-67
2021/12/29 08:01:25;;;;;;;0.30;0.30;;;8.10;99.90;;;;;;5075619;28;20259;-67
2021/12/29 08:03:51;;;;;;;0.30;0.30;;;8.10;99.90;;;;;;5075685;28;20201;-67
2021/12/29 08:06:18;;;;;;;0.30;0.30;;;8.10;99.90;;;;;;5075506;28;20266;-67
2021/12/29 08:08:44;;;;;;;0.30;0.30;;;8.10;99.90;;;;;;5075401;28;20177;-68
2021/12/29 08:11:09;;;;;;;0.30;0.30;;;8.30;99.90;;;;;;5075500;28;20593;-67
2021/12/29 08:13:35;;;;;;;0.30;0.30;;;8.40;99.90;;;;;;5075450;28;20180;-68
2021/12/29 08:16:01;;;;;;;0.30;0.30;;;8.40;99.90;;;;;;5075463;28;20163;-68
2021/12/29 08:18:26;;;;;;;0.30;0.30;;;8.50;99.90;;;;;;5075091;28;20163;-68
2021/12/29 08:20:52;;;;;;;0.30;0.30;;;8.60;99.90;;;;;;5075522;28;20238;-67
2021/12/29 08:23:18;;;;;;;0.30;0.30;;;8.50;99.90;;;;;;5075164;28;20195;-68
2021/12/29 08:25:43;;;;;;;0.30;0.30;;;8.60;99.90;;;;;;5075081;28;20203;-67
2021/12/29 08:28:09;;;;;;;0.30;0.30;;;8.60;99.90;;;;;;5075026;28;20254;-68
2021/12/29 08:30:35;;;;;;;0.30;0.30;;;8.70;99.90;;;;;;5074925;28;20197;-68
2021/12/29 08:33:01;;;;;;;0.30;0.30;;;8.50;99.90;;;;;;5074950;28;20226;-67
2021/12/29 08:35:27;;;;;;;0.30;0.30;;;8.60;99.90;;;;;;5074808;28;20189;-67
2021/12/29 08:37:54;;;;;;;0.30;0.30;;;8.60;99.90;;;;;;5075153;28;20407;-68
2021/12/29 08:40:20;;;;;;;0.30;0.30;;;8.50;99.90;;;;;;5075048;28;20247;-68
2021/12/29 08:42:47;;;;;;;0.30;0.30;;;8.50;99.90;;;;;;5074884;28;20184;-68
2021/12/29 08:45:15;;;;;;;0.30;0.30;;;8.50;99.90;;;;;;5074670;28;20325;-68
2021/12/29 08:47:41;;;;;;;0.30;0.30;;;8.40;99.90;;;;;;5074690;28;20182;-68
2021/12/29 08:50:10;;;;;;;0.30;0.30;;;8.40;99.90;;;;;;5074430;28;20179;-68
2021/12/29 08:52:37;;;;;;;0.30;0.30;;;8.40;99.90;;;;;;5074700;28;20171;-67
2021/12/29 08:55:04;;;;;;;0.30;0.30;;;8.50;99.90;;;;;;5074596;28;20188;-67
2021/12/29 08:57:31;;;;;;;0.30;0.30;;;8.60;99.90;;;;;;5074375;28;20174;-68
2021/12/29 08:59:57;;;;;;;0.30;0.30;;;8.50;99.90;;;;;;5074162;28;20184;-68
2021/12/29 09:02:23;;;;;;;0.30;0.30;;;8.50;99.90;;;;;;5074380;28;20178;-68
2021/12/29 09:04:49;;;;;;;0.30;0.30;;;8.50;99.90;;;;;;5074778;28;20201;-67
2021/12/29 09:07:14;;;;;;;0.30;0.30;;;8.50;99.90;;;;;;5074333;28;20215;-67
2021/12/29 09:09:40;;;;;;;0.30;0.30;;;8.40;99.90;;;;;;5073988;28;20715;-68
2021/12/29 09:12:06;;;;;;;0.40;0.40;;;8.40;99.90;;;;;;5074557;28;20741;-68
2021/12/29 09:14:32;;;;;;;0.30;0.30;;;8.50;99.90;;;;;;5074046;28;20213;-68
2021/12/29 09:16:57;;;;;;;0.30;0.30;;;8.60;99.90;;;;;;5074135;28;20764;-68
2021/12/29 09:19:23;;;;;;;0.30;0.30;;;8.50;99.90;;;;;;5073981;28;20170;-68
2021/12/29 09:21:52;;;;;;;0.30;0.30;;;8.70;99.90;;;;;;5074159;28;20193;-67
2021/12/29 09:24:18;;;;;;;0.30;0.30;;;8.70;99.90;;;;;;5073969;28;20431;-68
2021/12/29 09:26:44;;;;;;;0.30;0.30;;;8.70;99.90;;;;;;5073931;28;20635;-68
2021/12/29 09:29:10;;;;;;;0.30;0.30;;;8.70;99.90;;;;;;5073526;28;20851;-68
2021/12/29 09:31:35;;;;;;;0.30;0.30;;;8.80;99.90;;;;;;5073860;28;20228;-67
2021/12/29 09:34:01;;;;;;;0.30;0.30;;;8.80;99.90;;;;;;5073850;28;20184;-68
2021/12/29 09:36:27;;;;;;;0.30;0.30;;;8.80;99.90;;;;;;5073738;28;20248;-68
2021/12/29 09:38:53;;;;;;;0.30;0.30;;;8.80;99.90;;;;;;5073608;28;20653;-68
2021/12/29 09:41:19;;;;;;;0.30;0.30;;;8.70;99.90;;;;;;5074052;28;20258;-68
2021/12/29 09:43:47;;;;;;;0.30;0.30;;;8.80;99.90;;;;;;5073974;28;20185;-68
2021/12/29 09:46:13;;;;;;;0.30;0.30;;;8.80;99.90;;;;;;5073599;28;20206;-68
2021/12/29 09:48:39;;;;;;;0.30;0.30;;;8.80;99.90;;;;;;5073505;28;20171;-68
2021/12/29 09:51:07;;;;;;;0.30;0.30;;;8.80;99.90;;;;;;5073241;28;20235;-68
2021/12/29 09:53:35;;;;;;;0.30;0.30;;;8.80;99.90;;;;;;5073424;28;20646;-68
2021/12/29 09:56:01;;;;;;;0.30;0.30;;;8.90;99.90;;;;;;5073430;28;20192;-67
2021/12/29 09:58:27;;;;;;;0.30;0.30;;;8.90;99.90;;;;;;5073058;28;20168;-68
2021/12/29 10:00:56;;;;;;;0.53;0.53;;;8.80;99.90;;;;;;5073634;28;20400;-67
2021/12/29 10:03:24;;;;;;;0.40;0.40;;;8.80;99.90;;;;;;5073464;28;20177;-68
2021/12/29 10:05:52;;;;;;;0.30;0.30;;;8.80;99.90;;;;;;5073419;28;20181;-68
2021/12/29 10:08:18;;;;;;;0.30;0.30;;;8.80;99.90;;;;;;5073167;28;20650;-68
2021/12/29 10:10:48;;;;;;;0.30;0.30;;;8.60;99.90;;;;;;5073306;28;20200;-67
2021/12/29 10:13:15;;;;;;;0.30;0.30;;;8.30;99.90;;;;;;5073401;28;20182;-68
2021/12/29 10:15:44;;;;;;;0.30;0.30;;;8.50;99.90;;;;;;5073387;28;20176;-68
2021/12/29 10:18:16;;;;;;;0.30;0.30;;;8.50;99.90;;;;;;5073290;28;20168;-68
2021/12/29 10:20:48;;;;;;;0.30;0.30;;;8.30;99.90;;;;;;5073469;28;20633;-68
2021/12/29 10:23:26;;;;;;;1.05;1.05;;;8.10;99.90;;;;;;5073179;28;20586;-67
2021/12/29 10:25:54;;;;;;;0.30;0.30;;;8.20;99.90;;;;;;5073387;28;20195;-68
2021/12/29 10:28:19;;;;;;;0.40;0.40;;;8.20;99.90;;;;;;5073140;28;20176;-68
2021/12/29 10:30:45;;;;;;;0.30;0.30;;;8.30;99.90;;;;;;5073308;28;20200;-68
2021/12/29 10:33:12;;;;;;;0.30;0.30;;;8.30;99.90;;;;;;5073287;28;20230;-67
2021/12/29 10:35:38;;;;;;;0.30;0.30;;;8.30;99.90;;;;;;5073158;28;20172;-68
2021/12/29 10:38:14;;;;;;;0.30;0.30;;;8.20;99.90;;;;;;5072925;28;20169;-68
2021/12/29 10:40:40;;;;;;;0.30;0.30;;;8.10;99.90;;;;;;5073174;28;20184;-68
2021/12/29 10:43:06;;;;;;;0.30;0.30;;;8.00;99.90;;;;;;5073262;28;20188;-67
2021/12/29 10:45:34;;;;;;;0.30;0.30;;;8.00;99.90;;;;;;5072946;28;20200;-67
2021/12/29 10:48:01;;;;;;;0.30;0.30;;;8.00;99.90;;;;;;5072871;28;20230;-67
2021/12/29 10:50:28;;;;;;;0.30;0.30;;;8.10;99.90;;;;;;5072908;28;20214;-68
2021/12/29 10:52:57;;;;;;;0.30;0.30;;;8.20;99.90;;;;;;5073223;28;20165;-68
2021/12/29 10:55:34;;;;;;;0.30;0.30;;;8.20;99.90;;;;;;5072891;28;20616;-68
2021/12/29 10:58:22;;;;;;;0.30;0.30;;;8.20;99.90;;;;;;5072976;28;20531;-68
2021/12/29 11:00:56;;;;;;;0.30;0.30;;;8.10;99.90;;;;;;5073209;28;20250;-68
2021/12/29 11:03:23;;;;;;;0.32;0.32;;;8.30;99.90;;;;;;5076659;28;20195;-68
2021/12/29 11:05:58;;;;;;;0.30;0.30;;;8.30;99.90;;;;;;5076673;28;20234;-68
2021/12/29 11:08:32;;;;;;;0.30;0.30;;;8.20;99.90;;;;;;5076747;28;20172;-68
2021/12/29 11:11:04;;;;;;;0.30;0.30;;;8.10;99.90;;;;;;5076723;28;20209;-67
2021/12/29 11:13:31;;;;;;;0.40;0.40;;;7.90;99.90;;;;;;5076616;28;20254;-68
2021/12/29 11:15:58;;;;;;;0.30;0.30;;;8.00;99.90;;;;;;5076601;28;20518;-68
2021/12/29 11:18:24;;;;;;;0.30;0.30;;;8.00;99.90;;;;;;5076276;28;20233;-68
2021/12/29 11:20:55;;;;;;;0.30;0.30;;;8.00;99.90;;;;;;5076544;28;20639;-68
2021/12/29 11:23:22;;;;;;;0.30;0.30;;;8.00;99.90;;;;;;5076227;28;20172;-68
2021/12/29 11:25:49;;;;;;;0.30;0.30;;;8.00;99.90;;;;;;5076241;28;20176;-67
2021/12/29 11:28:29;;;;;;;0.30;0.30;;;7.90;99.90;;;;;;5076127;28;20243;-67
2021/12/29 11:30:58;;;;;;;0.30;0.30;;;7.90;99.90;;;;;;5076221;28;20196;-68
2021/12/29 11:33:28;;;;;;;0.57;0.57;;;8.00;99.90;;;;;;5076182;28;20192;-67
2021/12/29 11:35:54;;;;;;;0.30;0.30;;;7.90;99.90;;;;;;5076000;28;20259;-68
2021/12/29 11:38:22;;;;;;;0.30;0.30;;;7.90;99.90;;;;;;5075824;28;20194;-67
2021/12/29 11:40:52;;;;;;;0.30;0.30;;;8.10;99.90;;;;;;5076060;28;20512;-68
2021/12/29 11:43:20;;;;;;;0.40;0.40;;;8.30;99.90;;;;;;5075989;28;20225;-67
2021/12/29 11:45:49;;;;;;;0.35;0.35;;;8.40;99.90;;;;;;5075864;28;20165;-68
2021/12/29 11:48:16;;;;;;;0.40;0.40;;;8.60;99.90;;;;;;5075828;28;20551;-68
2021/12/29 11:50:53;;;;;;;0.30;0.30;;;8.70;99.90;;;;;;5075712;28;20561;-68
2021/12/29 11:53:45;;;;;;;0.30;0.30;;;8.60;99.90;;;;;;5075745;28;20169;-67
2021/12/29 11:56:19;;;;;;;0.30;0.30;;;8.70;99.90;;;;;;5074514;28;20230;-67
2021/12/29 11:58:47;;;;;;;0.30;0.30;;;8.70;99.90;;;;;;5075554;28;20209;-67
2021/12/29 12:01:25;;;;;;;0.32;0.32;;;8.90;99.90;;;;;;5075561;28;20653;-67
2021/12/29 12:03:56;;;;;;;0.30;0.30;;;8.80;99.90;;;;;;5075611;28;20194;-68
2021/12/29 12:06:29;;;;;;;0.30;0.30;;;8.80;99.90;;;;;;5075667;28;20542;-68
2021/12/29 12:09:17;;;;;;;0.30;0.30;;;8.60;99.90;;;;;;5075365;28;20531;-68
2021/12/29 12:11:49;;;;;;;0.30;0.30;;;8.70;99.90;;;;;;5075700;28;20276;-68
2021/12/29 12:14:26;;;;;;;0.30;0.30;;;8.70;99.90;;;;;;5075289;28;20211;-68
2021/12/29 12:16:57;;;;;;;0.38;0.38;;;8.70;99.90;;;;;;5075409;28;20167;-67
2021/12/29 12:19:25;;;;;;;0.30;0.30;;;8.80;99.90;;;;;;5075099;28;20518;-68
2021/12/29 12:22:13;;;;;;;0.30;0.30;;;8.80;99.90;;;;;;5075206;28;20235;-68
2021/12/29 12:24:41;;;;;;;0.30;0.30;;;8.80;99.90;;;;;;5075200;28;20191;-68
2021/12/29 12:27:11;;;;;;;0.40;0.40;;;8.90;99.90;;;;;;5075209;28;20176;-67
2021/12/29 12:29:43;;;;;;;0.30;0.30;;;9.00;99.90;;;;;;5074894;28;20251;-68
2021/12/29 12:32:18;;;;;;;0.30;0.30;;;8.90;99.90;;;;;;5074890;28;20650;-68
2021/12/29 12:35:01;;;;;;;0.30;0.30;;;8.90;99.90;;;;;;5074889;28;20194;-68
2021/12/29 12:37:36;;;;;;;0.30;0.30;;;9.00;99.90;;;;;;5075211;28;20195;-68
2021/12/29 12:40:11;;;;;;;0.30;0.30;;;9.10;99.90;;;;;;5074934;28;20170;-68
2021/12/29 12:42:37;;;;;;;0.30;0.30;;;9.00;99.90;;;;;;5074980;28;20164;-68
2021/12/29 12:45:24;;;;;;;0.30;0.30;;;9.10;99.90;;;;;;5074724;28;20291;-68
2021/12/29 12:48:00;;;;;;;0.30;0.30;;;9.10;99.90;;;;;;5075002;28;20177;-67
2021/12/29 12:50:27;;;;;;;0.30;0.30;;;9.10;99.90;;;;;;5074793;28;20281;-68
2021/12/29 12:52:55;;;;;;;0.30;0.30;;;9.00;99.90;;;;;;5075032;28;20585;-68
2021/12/29 12:55:21;;;;;;;0.30;0.30;;;9.00;99.90;;;;;;5074467;28;20252;-68
2021/12/29 12:57:50;;;;;;;0.35;0.35;;;9.00;99.90;;;;;;5074551;28;20188;-68
2021/12/29 13:00:18;;;;;;;0.30;0.30;;;9.10;99.90;;;;;;5074357;28;20251;-68
2021/12/29 13:02:55;;;;;;;0.40;0.40;;;9.00;99.90;;;;;;5074625;28;20193;-68